Time;durP1;ratioP1;P1;durP2;ratioP2;P2;SDS_P1;SDS_P2;PMS_P1;PMS_P2;Temp;Humidity;BMP_temperature;BMP_pressure;BME280_temperature;BME280_humidity;BME280_pressure;Samples;Min_cycle;Max_cycle;Signal;HPM_P1;HPM_P2
2021/11/26 00:01:17;;;;;;;2.60;0.30;;;;;;;;;;5047884;28;20029;-78
2021/11/26 00:03:42;;;;;;;0.57;0.30;;;;;;;;;;5047905;28;20094;-77
2021/11/26 00:06:08;;;;;;;0.50;0.30;;;;;;;;;;5066117;28;20025;-77
2021/11/26 00:08:34;;;;;;;1.80;0.40;;;;;;;;;;5065989;28;20067;-77
2021/11/26 00:10:59;;;;;;;2.42;0.32;;;;;;;;;;5065656;28;20032;-77
2021/11/26 00:13:31;;;;;;;2.13;0.40;;;;;;;;;;5065417;28;20040;-77
2021/11/26 00:16:40;;;;;;;4.10;0.55;;;;;;;;;;5047740;28;20124;-76
2021/11/26 00:18:50;;;;;;;2.20;0.50;;;;;;;;;;5051664;28;20033;-77
2021/11/26 00:21:16;;;;;;;0.90;0.30;;;;;;;;;;5065224;28;20067;-78
2021/11/26 00:23:41;;;;;;;0.50;0.32;;;;;;;;;;5065732;28;20021;-76
2021/11/26 00:26:07;;;;;;;1.70;0.40;;;;;;;;;;5047292;28;20158;-77
2021/11/26 00:28:33;;;;;;;1.55;0.50;;;;;;;;;;5047276;28;20037;-77
2021/11/26 00:30:58;;;;;;;5.35;0.75;;;;;;;;;;5047066;28;20029;-77
2021/11/26 00:33:24;;;;;;;1.48;0.45;;;;;;;;;;5065415;28;20029;-77
2021/11/26 00:35:51;;;;;;;3.15;0.75;;;;;;;;;;5064946;28;20120;-78
2021/11/26 00:38:17;;;;;;;4.47;0.60;;;;;;;;;;5065213;28;20025;-77
2021/11/26 00:40:43;;;;;;;0.88;0.45;;;;;;;;;;5065126;28;20052;-77
2021/11/26 00:43:08;;;;;;;0.88;0.40;;;;;;;;;;5047004;28;20036;-77
2021/11/26 00:45:34;;;;;;;0.25;0.25;;;;;;;;;;5064766;28;20044;-77
2021/11/26 00:47:59;;;;;;;0.70;0.40;;;;;;;;;;5064703;28;20033;-77
2021/11/26 00:50:25;;;;;;;1.05;0.30;;;;;;;;;;5064501;28;20084;-77
2021/11/26 00:52:51;;;;;;;1.92;0.50;;;;;;;;;;5046699;28;20040;-77
2021/11/26 00:55:16;;;;;;;1.35;0.40;;;;;;;;;;5064267;28;20433;-77
2021/11/26 00:57:42;;;;;;;1.10;0.35;;;;;;;;;;5064514;28;20088;-77
2021/11/26 01:00:10;;;;;;;0.47;0.25;;;;;;;;;;5064437;28;20025;-77
2021/11/26 01:02:36;;;;;;;0.93;0.20;;;;;;;;;;5046824;28;20025;-77
2021/11/26 01:05:02;;;;;;;1.45;0.50;;;;;;;;;;5046235;28;20071;-77
2021/11/26 01:07:28;;;;;;;8.02;0.57;;;;;;;;;;5046251;28;20037;-78
2021/11/26 01:09:55;;;;;;;0.30;0.22;;;;;;;;;;5063995;28;20036;-77
2021/11/26 01:12:21;;;;;;;2.28;0.40;;;;;;;;;;5046373;28;20048;-77
2021/11/26 01:14:46;;;;;;;0.30;0.20;;;;;;;;;;5064688;28;20017;-77
2021/11/26 01:17:11;;;;;;;0.47;0.20;;;;;;;;;;5046399;28;20123;-77
2021/11/26 01:19:37;;;;;;;3.97;0.40;;;;;;;;;;5046385;28;20055;-77
2021/11/26 01:22:02;;;;;;;0.52;0.30;;;;;;;;;;5046446;28;20025;-77
2021/11/26 01:24:28;;;;;;;0.63;0.25;;;;;;;;;;5046393;28;20032;-77
2021/11/26 01:26:53;;;;;;;0.60;0.30;;;;;;;;;;5064150;28;20324;-77
2021/11/26 01:29:19;;;;;;;0.93;0.30;;;;;;;;;;5046247;28;20025;-77
2021/11/26 01:31:46;;;;;;;0.40;0.30;;;;;;;;;;5046090;28;20530;-77
2021/11/26 01:34:12;;;;;;;4.82;0.40;;;;;;;;;;5064172;28;20089;-78
2021/11/26 01:36:37;;;;;;;2.80;0.30;;;;;;;;;;5063894;28;20063;-78
2021/11/26 01:39:04;;;;;;;0.90;0.32;;;;;;;;;;5046028;28;20229;-77
2021/11/26 01:41:30;;;;;;;3.03;0.40;;;;;;;;;;5063769;28;20040;-77
2021/11/26 01:43:55;;;;;;;0.70;0.30;;;;;;;;;;5045712;28;20060;-77
2021/11/26 01:46:21;;;;;;;0.60;0.30;;;;;;;;;;5063862;28;20064;-77
2021/11/26 01:48:47;;;;;;;1.98;0.40;;;;;;;;;;5064101;28;20021;-77
2021/11/26 01:51:12;;;;;;;0.20;0.20;;;;;;;;;;5063949;28;20033;-77
2021/11/26 01:53:39;;;;;;;2.38;0.50;;;;;;;;;;5045841;28;20237;-77
2021/11/26 01:56:05;;;;;;;2.78;0.50;;;;;;;;;;5063780;28;20028;-77
2021/11/26 01:58:31;;;;;;;10.23;3.08;;;;;;;;;;5045940;28;20037;-77
2021/11/26 02:00:57;;;;;;;6.30;2.15;;;;;;;;;;5063565;28;20147;-78
2021/11/26 02:03:23;;;;;;;5.18;2.00;;;;;;;;;;5045674;28;20021;-77
2021/11/26 02:05:48;;;;;;;3.35;0.85;;;;;;;;;;5063419;28;20040;-78
2021/11/26 02:08:14;;;;;;;0.82;0.50;;;;;;;;;;5063396;28;20033;-77
2021/11/26 02:10:40;;;;;;;2.15;0.93;;;;;;;;;;5063035;28;20024;-77
2021/11/26 02:13:06;;;;;;;2.80;0.60;;;;;;;;;;5063702;28;20033;-77
2021/11/26 02:15:39;;;;;;;1.48;0.52;;;;;;;;;;5063090;28;20086;-77
2021/11/26 02:18:05;;;;;;;1.30;0.60;;;;;;;;;;5062754;28;20033;-77
2021/11/26 02:20:30;;;;;;;0.43;0.40;;;;;;;;;;5062713;28;20036;-77
2021/11/26 02:22:57;;;;;;;1.23;0.50;;;;;;;;;;5063260;28;20473;-77
2021/11/26 02:25:25;;;;;;;0.50;0.50;;;;;;;;;;5063421;28;20080;-78
2021/11/26 02:27:53;;;;;;;2.10;0.50;;;;;;;;;;5063215;28;20060;-77
2021/11/26 02:30:19;;;;;;;2.22;0.45;;;;;;;;;;5063309;28;20050;-77
2021/11/26 02:33:03;;;;;;;3.70;0.47;;;;;;;;;;5063346;28;20021;-77
2021/11/26 02:35:30;;;;;;;0.95;0.47;;;;;;;;;;5062565;28;20045;-77
2021/11/26 02:37:56;;;;;;;1.40;0.38;;;;;;;;;;5045265;28;20064;-77
2021/11/26 02:40:24;;;;;;;1.48;0.50;;;;;;;;;;5062956;28;20091;-77
2021/11/26 02:42:51;;;;;;;3.28;0.50;;;;;;;;;;5063039;28;20383;-77
2021/11/26 02:45:18;;;;;;;0.68;0.43;;;;;;;;;;5062846;28;20377;-77
2021/11/26 02:47:44;;;;;;;0.85;0.50;;;;;;;;;;5062403;28;20346;-78
2021/11/26 02:50:12;;;;;;;1.90;0.60;;;;;;;;;;5044605;28;20064;-77
2021/11/26 02:52:39;;;;;;;0.55;0.43;;;;;;;;;;5062725;28;20029;-77
2021/11/26 02:55:07;;;;;;;5.47;0.60;;;;;;;;;;5062655;28;20025;-77
2021/11/26 02:57:36;;;;;;;2.38;0.50;;;;;;;;;;5062506;28;20059;-77
2021/11/26 03:00:03;;;;;;;1.23;0.50;;;;;;;;;;5062658;28;20025;-77
2021/11/26 03:02:29;;;;;;;2.45;0.80;;;;;;;;;;5062236;28;20029;-77
2021/11/26 03:04:54;;;;;;;1.20;0.70;;;;;;;;;;5062636;28;20112;-77
2021/11/26 03:07:20;;;;;;;3.03;0.70;;;;;;;;;;5062988;28;20029;-77
2021/11/26 03:09:45;;;;;;;0.90;0.70;;;;;;;;;;5062775;28;20029;-77
2021/11/26 03:12:11;;;;;;;1.70;0.70;;;;;;;;;;5062429;28;20029;-77
2021/11/26 03:14:37;;;;;;;1.48;0.75;;;;;;;;;;5063177;28;20110;-77
2021/11/26 03:17:03;;;;;;;1.10;0.60;;;;;;;;;;5062822;28;20035;-77
2021/11/26 03:19:29;;;;;;;3.33;0.70;;;;;;;;;;5045063;28;20040;-77
2021/11/26 03:21:54;;;;;;;2.65;0.70;;;;;;;;;;5062568;28;20037;-77
2021/11/26 03:24:20;;;;;;;0.98;0.60;;;;;;;;;;5062338;28;20037;-77
2021/11/26 03:26:45;;;;;;;2.20;0.82;;;;;;;;;;5062016;28;20116;-77
2021/11/26 03:29:11;;;;;;;1.02;0.80;;;;;;;;;;5047980;28;20039;-78
2021/11/26 03:31:37;;;;;;;1.00;0.70;;;;;;;;;;5066535;28;20057;-77
2021/11/26 03:34:03;;;;;;;3.70;1.15;;;;;;;;;;5066285;28;20028;-77
2021/11/26 03:36:29;;;;;;;8.27;1.33;;;;;;;;;;5047686;28;20088;-76
2021/11/26 03:38:54;;;;;;;3.95;1.20;;;;;;;;;;5066197;28;20028;-77
2021/11/26 03:41:20;;;;;;;2.83;1.15;;;;;;;;;;5065690;28;20021;-78
2021/11/26 03:43:45;;;;;;;3.75;0.98;;;;;;;;;;5048217;28;20109;-78
2021/11/26 03:46:11;;;;;;;1.27;0.73;;;;;;;;;;5047995;28;20025;-77
2021/11/26 03:48:37;;;;;;;2.13;0.90;;;;;;;;;;5066380;28;20033;-77
2021/11/26 03:51:03;;;;;;;1.67;0.80;;;;;;;;;;5066028;28;20107;-77
2021/11/26 03:53:28;;;;;;;1.08;0.88;;;;;;;;;;5066143;28;20025;-77
2021/11/26 03:55:54;;;;;;;0.73;0.47;;;;;;;;;;5065614;28;20481;-77
2021/11/26 03:58:19;;;;;;;1.17;0.50;;;;;;;;;;5047822;28;20033;-77
2021/11/26 04:00:44;;;;;;;1.15;0.55;;;;;;;;;;5065864;28;20060;-77
2021/11/26 04:03:10;;;;;;;1.80;0.70;;;;;;;;;;5065605;28;20405;-77
2021/11/26 04:05:35;;;;;;;1.20;0.60;;;;;;;;;;5065597;28;20025;-77
2021/11/26 04:08:01;;;;;;;2.17;0.70;;;;;;;;;;5047691;28;20032;-76
2021/11/26 04:10:27;;;;;;;1.15;0.60;;;;;;;;;;5065249;28;20075;-77
2021/11/26 04:12:53;;;;;;;2.15;0.70;;;;;;;;;;5047652;28;20062;-77
2021/11/26 04:15:19;;;;;;;2.30;0.55;;;;;;;;;;5065690;28;20063;-77
2021/11/26 04:17:48;;;;;;;1.42;0.55;;;;;;;;;;5065817;28;20326;-77
2021/11/26 04:20:15;;;;;;;1.50;0.60;;;;;;;;;;5065065;28;20032;-77
2021/11/26 04:22:41;;;;;;;2.72;0.60;;;;;;;;;;5065701;28;20078;-76
2021/11/26 04:25:09;;;;;;;3.35;0.70;;;;;;;;;;5046856;28;20029;-77
2021/11/26 04:27:35;;;;;;;1.85;0.60;;;;;;;;;;5065289;28;20059;-78
2021/11/26 04:30:02;;;;;;;1.77;0.50;;;;;;;;;;5047033;28;20029;-77
2021/11/26 04:32:27;;;;;;;2.13;0.80;;;;;;;;;;5047131;28;20452;-77
2021/11/26 04:34:54;;;;;;;1.42;0.85;;;;;;;;;;5047177;28;20021;-76
2021/11/26 04:37:19;;;;;;;4.10;0.90;;;;;;;;;;5046549;28;20021;-77
2021/11/26 04:39:44;;;;;;;3.85;1.00;;;;;;;;;;5063764;28;20025;-77
2021/11/26 04:42:10;;;;;;;1.67;0.90;;;;;;;;;;5064660;28;20125;-77
2021/11/26 04:44:36;;;;;;;1.13;0.77;;;;;;;;;;5064884;28;20484;-77
2021/11/26 04:47:02;;;;;;;1.58;0.88;;;;;;;;;;5065220;28;20067;-77
2021/11/26 04:49:27;;;;;;;2.53;1.00;;;;;;;;;;5047506;28;20036;-77
2021/11/26 04:51:53;;;;;;;3.13;1.33;;;;;;;;;;5065010;28;20068;-77
2021/11/26 04:54:18;;;;;;;4.28;1.30;;;;;;;;;;5046949;28;20028;-77
2021/11/26 04:56:44;;;;;;;6.65;1.63;;;;;;;;;;5064876;28;20108;-77
2021/11/26 04:59:09;;;;;;;2.60;0.93;;;;;;;;;;5046855;28;20060;-77
2021/11/26 05:01:34;;;;;;;6.10;1.55;;;;;;;;;;5046554;28;20040;-77
2021/11/26 05:04:00;;;;;;;2.20;1.00;;;;;;;;;;5045143;28;20025;-77
2021/11/26 05:06:25;;;;;;;4.57;1.13;;;;;;;;;;5045683;28;20029;-77
2021/11/26 05:08:51;;;;;;;2.70;1.10;;;;;;;;;;5064194;28;20025;-77
2021/11/26 05:11:17;;;;;;;5.30;1.52;;;;;;;;;;5045894;28;20473;-76
2021/11/26 05:13:45;;;;;;;3.47;1.48;;;;;;;;;;5064017;28;20032;-77
2021/11/26 05:16:13;;;;;;;3.30;1.27;;;;;;;;;;5045589;28;20025;-78
2021/11/26 05:18:43;;;;;;;4.32;1.27;;;;;;;;;;5064739;28;20067;-77
2021/11/26 05:21:09;;;;;;;3.88;1.10;;;;;;;;;;5064131;28;20400;-78
2021/11/26 05:23:34;;;;;;;3.63;1.00;;;;;;;;;;5046272;28;20048;-77
2021/11/26 05:26:00;;;;;;;3.10;1.30;;;;;;;;;;5064091;28;20032;-78
2021/11/26 05:28:26;;;;;;;6.82;1.40;;;;;;;;;;5064072;28;20131;-78
2021/11/26 05:30:52;;;;;;;4.05;1.48;;;;;;;;;;5045772;28;20020;-77
2021/11/26 05:33:17;;;;;;;3.67;1.27;;;;;;;;;;5063880;28;20028;-78
2021/11/26 05:35:43;;;;;;;6.85;1.27;;;;;;;;;;5063694;28;20456;-77
2021/11/26 05:38:08;;;;;;;4.47;1.23;;;;;;;;;;5063658;28;20029;-77
2021/11/26 05:40:34;;;;;;;3.10;1.63;;;;;;;;;;5045619;28;20033;-78
2021/11/26 05:43:00;;;;;;;5.68;0.95;;;;;;;;;;5063962;28;20063;-77
2021/11/26 05:45:25;;;;;;;3.25;0.75;;;;;;;;;;5045658;28;20071;-78
2021/11/26 05:47:51;;;;;;;3.25;0.98;;;;;;;;;;5063506;28;20025;-77
2021/11/26 05:50:19;;;;;;;6.60;1.00;;;;;;;;;;5062885;28;20098;-77
2021/11/26 05:52:44;;;;;;;2.05;0.82;;;;;;;;;;5061957;28;20029;-77
2021/11/26 05:55:14;;;;;;;2.90;0.82;;;;;;;;;;5044993;28;20359;-77
2021/11/26 05:57:39;;;;;;;5.15;0.93;;;;;;;;;;5044855;28;20021;-77
2021/11/26 06:00:07;;;;;;;3.60;1.10;;;;;;;;;;5063084;28;20036;-77
2021/11/26 06:02:32;;;;;;;3.92;0.90;;;;;;;;;;5045863;28;20100;-78
2021/11/26 06:04:58;;;;;;;2.67;0.90;;;;;;;;;;5063863;28;20025;-77
2021/11/26 06:07:23;;;;;;;2.15;0.93;;;;;;;;;;5063555;28;20108;-77
2021/11/26 06:09:49;;;;;;;3.47;0.85;;;;;;;;;;5063299;28;20112;-77
2021/11/26 06:12:14;;;;;;;4.68;0.95;;;;;;;;;;5062873;28;20111;-77
2021/11/26 06:14:40;;;;;;;2.90;0.85;;;;;;;;;;5064028;28;20040;-77
2021/11/26 06:17:05;;;;;;;5.78;0.90;;;;;;;;;;5045656;28;20025;-78
2021/11/26 06:19:31;;;;;;;2.55;1.20;;;;;;;;;;5063452;28;20029;-77
2021/11/26 06:21:56;;;;;;;1.65;0.90;;;;;;;;;;5044175;28;20032;-77
2021/11/26 06:24:22;;;;;;;2.30;0.73;;;;;;;;;;5062998;28;20067;-76
2021/11/26 06:26:47;;;;;;;2.50;0.98;;;;;;;;;;5062482;28;20036;-77
2021/11/26 06:29:13;;;;;;;2.20;0.70;;;;;;;;;;5045538;28;20056;-77
2021/11/26 06:31:39;;;;;;;2.28;0.98;;;;;;;;;;5063474;28;20027;-77
2021/11/26 06:34:05;;;;;;;4.10;0.70;;;;;;;;;;5045302;28;20491;-78
2021/11/26 06:36:32;;;;;;;4.47;1.00;;;;;;;;;;5062979;28;20025;-77
2021/11/26 06:38:58;;;;;;;2.90;0.70;;;;;;;;;;5063261;28;20036;-77
2021/11/26 06:41:23;;;;;;;1.67;0.57;;;;;;;;;;5044989;28;20029;-77
2021/11/26 06:43:49;;;;;;;2.45;0.63;;;;;;;;;;5045127;28;20018;-77
2021/11/26 06:46:14;;;;;;;3.17;0.80;;;;;;;;;;5044365;28;20454;-78
2021/11/26 06:48:40;;;;;;;5.30;0.77;;;;;;;;;;5043844;28;20059;-78
2021/11/26 06:51:05;;;;;;;2.00;0.70;;;;;;;;;;5062261;28;20021;-77
2021/11/26 06:53:31;;;;;;;5.20;0.80;;;;;;;;;;5062214;28;20505;-77
2021/11/26 06:55:56;;;;;;;2.33;0.80;;;;;;;;;;5043754;28;20277;-78
2021/11/26 06:58:21;;;;;;;2.38;0.70;;;;;;;;;;5044345;28;20029;-77
2021/11/26 07:00:47;;;;;;;1.33;0.68;;;;;;;;;;5045372;28;20064;-77
2021/11/26 07:03:12;;;;;;;3.45;0.70;;;;;;;;;;5065025;28;20040;-77
2021/11/26 07:05:38;;;;;;;3.50;0.80;;;;;;;;;;5067079;28;20036;-77
2021/11/26 07:08:04;;;;;;;6.10;1.00;;;;;;;;;;5049022;28;20025;-77
2021/11/26 07:10:29;;;;;;;0.82;0.50;;;;;;;;;;5049031;28;20433;-78
2021/11/26 07:12:54;;;;;;;4.05;1.00;;;;;;;;;;5067283;28;20086;-78
2021/11/26 07:15:20;;;;;;;5.45;0.95;;;;;;;;;;5067002;28;20044;-77
2021/11/26 07:17:46;;;;;;;3.25;0.60;;;;;;;;;;5067409;28;20040;-77
2021/11/26 07:20:15;;;;;;;4.40;0.70;;;;;;;;;;5048762;28;20092;-77
2021/11/26 07:22:42;;;;;;;0.70;0.50;;;;;;;;;;5066976;28;20035;-77
2021/11/26 07:25:08;;;;;;;2.67;0.60;;;;;;;;;;5066828;28;20028;-77
2021/11/26 07:27:33;;;;;;;3.80;0.95;;;;;;;;;;5048446;28;20049;-77
2021/11/26 07:29:59;;;;;;;2.53;0.75;;;;;;;;;;5066841;28;20021;-77
2021/11/26 07:32:24;;;;;;;4.32;0.73;;;;;;;;;;5066502;28;20382;-77
2021/11/26 07:34:51;;;;;;;3.35;0.70;;;;;;;;;;5066764;28;20045;-77
2021/11/26 07:37:17;;;;;;;1.70;0.80;;;;;;;;;;5048534;28;20017;-77
2021/11/26 07:39:44;;;;;;;3.20;0.60;;;;;;;;;;5066689;28;20025;-78
2021/11/26 07:42:11;;;;;;;2.17;0.82;;;;;;;;;;5066617;28;20089;-77
2021/11/26 07:44:39;;;;;;;2.13;0.68;;;;;;;;;;5066768;28;20038;-77
2021/11/26 07:47:06;;;;;;;4.75;0.80;;;;;;;;;;5048386;28;20067;-77
2021/11/26 07:49:32;;;;;;;1.80;0.50;;;;;;;;;;5066682;28;20037;-77
2021/11/26 07:52:00;;;;;;;1.67;0.47;;;;;;;;;;5066310;28;20029;-77
2021/11/26 07:54:26;;;;;;;1.95;0.65;;;;;;;;;;5048515;28;20025;-77
2021/11/26 07:56:52;;;;;;;2.17;0.60;;;;;;;;;;5066127;28;20417;-78
2021/11/26 07:59:19;;;;;;;4.00;0.60;;;;;;;;;;5066502;28;20025;-77
2021/11/26 08:01:44;;;;;;;2.42;0.60;;;;;;;;;;5065984;28;20025;-77
2021/11/26 08:04:10;;;;;;;1.20;0.43;;;;;;;;;;5065982;28;20067;-78
2021/11/26 08:06:35;;;;;;;1.13;0.52;;;;;;;;;;5065748;28;20024;-78
2021/11/26 08:09:02;;;;;;;1.52;0.65;;;;;;;;;;5047604;28;20028;-78
2021/11/26 08:11:27;;;;;;;3.90;0.60;;;;;;;;;;5065532;28;20033;-78
2021/11/26 08:13:54;;;;;;;2.08;0.75;;;;;;;;;;5064913;28;20041;-77
2021/11/26 08:16:19;;;;;;;0.95;0.55;;;;;;;;;;5047105;28;20028;-78
2021/11/26 08:18:45;;;;;;;1.88;0.55;;;;;;;;;;5066137;28;20028;-77
2021/11/26 08:21:10;;;;;;;1.27;0.50;;;;;;;;;;5047809;28;20036;-77
2021/11/26 08:23:36;;;;;;;1.48;0.60;;;;;;;;;;5065829;28;20025;-78
2021/11/26 08:26:01;;;;;;;3.13;0.70;;;;;;;;;;5065667;28;20029;-77
2021/11/26 08:28:28;;;;;;;2.58;0.80;;;;;;;;;;5065733;28;20052;-77
2021/11/26 08:30:54;;;;;;;4.10;0.55;;;;;;;;;;5065093;28;20043;-78
2021/11/26 08:33:20;;;;;;;3.53;0.63;;;;;;;;;;5065729;28;20025;-78
2021/11/26 08:35:46;;;;;;;0.50;0.43;;;;;;;;;;5065770;28;20056;-78
2021/11/26 08:38:12;;;;;;;1.02;0.40;;;;;;;;;;5065859;28;20033;-78
2021/11/26 08:40:37;;;;;;;1.23;0.60;;;;;;;;;;5065299;28;20024;-77
2021/11/26 08:43:02;;;;;;;4.38;0.60;;;;;;;;;;5047503;28;20036;-77
2021/11/26 08:45:28;;;;;;;3.67;0.60;;;;;;;;;;5047433;28;20396;-77
2021/11/26 08:47:54;;;;;;;2.53;0.70;;;;;;;;;;5065276;28;20025;-78
2021/11/26 08:50:21;;;;;;;2.10;0.75;;;;;;;;;;5047329;28;20033;-77
2021/11/26 08:52:47;;;;;;;1.95;0.50;;;;;;;;;;5065397;28;20057;-77
2021/11/26 08:55:17;;;;;;;3.10;0.63;;;;;;;;;;5065150;28;20059;-78
2021/11/26 08:57:54;;;;;;;2.83;0.70;;;;;;;;;;5047627;28;20036;-78
2021/11/26 09:00:23;;;;;;;2.42;0.60;;;;;;;;;;5065020;28;20048;-78
2021/11/26 09:02:49;;;;;;;4.65;0.80;;;;;;;;;;5065305;28;20234;-78
2021/11/26 09:05:15;;;;;;;1.42;0.68;;;;;;;;;;5064997;28;20025;-77
2021/11/26 09:07:43;;;;;;;4.07;0.90;;;;;;;;;;5064909;28;20025;-78
2021/11/26 09:10:08;;;;;;;1.95;0.70;;;;;;;;;;5064800;28;20036;-77
2021/11/26 09:12:34;;;;;;;1.30;0.52;;;;;;;;;;5065097;28;20029;-77
2021/11/26 09:14:59;;;;;;;2.70;0.95;;;;;;;;;;5064929;28;20341;-77
2021/11/26 09:17:25;;;;;;;2.50;0.68;;;;;;;;;;5064991;28;20033;-77
2021/11/26 09:19:50;;;;;;;1.80;0.70;;;;;;;;;;5065100;28;20029;-78
2021/11/26 09:22:15;;;;;;;7.22;0.95;;;;;;;;;;5064630;28;20021;-77
2021/11/26 09:24:41;;;;;;;2.15;0.73;;;;;;;;;;5064745;28;20029;-78
2021/11/26 09:27:06;;;;;;;1.80;0.80;;;;;;;;;;5064149;28;20033;-78
2021/11/26 09:29:32;;;;;;;2.42;0.60;;;;;;;;;;5064622;28;20044;-78
2021/11/26 09:31:58;;;;;;;2.92;0.65;;;;;;;;;;5064533;28;20031;-78
2021/11/26 09:34:23;;;;;;;3.90;0.95;;;;;;;;;;5046538;28;20134;-78
2021/11/26 09:36:48;;;;;;;0.88;0.45;;;;;;;;;;5064364;28;20032;-78
2021/11/26 09:39:14;;;;;;;1.63;0.60;;;;;;;;;;5046525;28;20033;-78
2021/11/26 09:41:39;;;;;;;1.67;0.50;;;;;;;;;;5064092;28;20053;-78
2021/11/26 09:44:07;;;;;;;2.97;0.40;;;;;;;;;;5064110;28;20060;-77
2021/11/26 09:46:37;;;;;;;2.20;0.55;;;;;;;;;;5064178;28;20583;-79
2021/11/26 09:49:05;;;;;;;2.92;0.80;;;;;;;;;;5064285;28;20025;-79
2021/11/26 09:51:30;;;;;;;1.67;0.50;;;;;;;;;;5063969;28;20029;-78
2021/11/26 09:53:56;;;;;;;1.17;0.50;;;;;;;;;;5046127;28;20096;-78
2021/11/26 09:56:22;;;;;;;5.47;0.77;;;;;;;;;;5063661;28;20063;-79
2021/11/26 09:58:48;;;;;;;1.15;0.50;;;;;;;;;;5064251;28;20025;-77
2021/11/26 10:01:14;;;;;;;2.55;0.57;;;;;;;;;;5063748;28;20028;-79
2021/11/26 10:03:51;;;;;;;2.78;0.55;;;;;;;;;;5045958;28;20063;-78
2021/11/26 10:06:38;;;;;;;2.33;0.65;;;;;;;;;;5063824;28;20111;-78
2021/11/26 10:09:12;;;;;;;4.40;0.63;;;;;;;;;;5064148;28;20440;-79
2021/11/26 10:11:45;;;;;;;2.03;0.65;;;;;;;;;;5063930;28;20025;-79
2021/11/26 10:14:41;;;;;;;2.80;0.70;;;;;;;;;;5064034;28;20033;-77
2021/11/26 10:17:23;;;;;;;2.08;0.50;;;;;;;;;;5042012;28;20045;-78
2021/11/26 10:19:51;;;;;;;2.22;0.60;;;;;;;;;;5063917;28;20033;-78
2021/11/26 10:22:21;;;;;;;2.78;0.60;;;;;;;;;;5063616;28;20035;-78
2021/11/26 10:25:21;;;;;;;3.55;0.60;;;;;;;;;;5063576;28;20025;-78
2021/11/26 10:27:58;;;;;;;0.47;0.40;;;;;;;;;;5063642;28;20056;-77
2021/11/26 10:30:38;;;;;;;3.63;0.60;;;;;;;;;;5045667;28;20115;-79
2021/11/26 10:33:23;;;;;;;4.95;0.40;;;;;;;;;;5045396;28;20025;-78
2021/11/26 10:35:56;;;;;;;1.55;0.60;;;;;;;;;;5063037;28;20035;-80
2021/11/26 10:38:27;;;;;;;0.63;0.50;;;;;;;;;;5065257;28;20029;-78
2021/11/26 10:40:58;;;;;;;2.38;0.60;;;;;;;;;;5067252;28;20052;-76
2021/11/26 10:43:37;;;;;;;2.20;0.50;;;;;;;;;;5049452;28;20029;-79
2021/11/26 10:49:04;;;;;;;4.25;0.65;;;;;;;;;;5016314;28;20041;-77
2021/11/26 10:59:58;;;;;;;3.25;0.63;;;;;;;;;;5067447;28;20044;-78
2021/11/26 11:02:34;;;;;;;3.42;0.52;;;;;;;;;;5067472;28;20029;-78
2021/11/26 11:05:00;;;;;;;3.75;0.60;;;;;;;;;;5066715;28;20025;-78
2021/11/26 11:07:37;;;;;;;1.08;0.47;;;;;;;;;;5066765;28;20033;-79
2021/11/26 11:10:03;;;;;;;0.73;0.40;;;;;;;;;;5066190;28;20423;-79
2021/11/26 11:12:35;;;;;;;1.35;0.50;;;;;;;;;;5066520;28;20033;-81
2021/11/26 11:15:07;;;;;;;2.95;0.60;;;;;;;;;;5066399;28;20032;-78
2021/11/26 11:17:32;;;;;;;3.40;0.65;;;;;;;;;;5048562;28;20036;-78
2021/11/26 11:20:08;;;;;;;0.25;0.25;;;;;;;;;;5066657;28;20060;-78
2021/11/26 11:22:34;;;;;;;5.22;0.90;;;;;;;;;;5066370;28;20054;-79
2021/11/26 11:25:00;;;;;;;1.23;0.70;;;;;;;;;;5066252;28;20037;-78
2021/11/26 11:27:26;;;;;;;2.63;0.68;;;;;;;;;;5047978;28;20053;-78
2021/11/26 11:29:52;;;;;;;3.28;0.80;;;;;;;;;;5048597;28;20052;-78
2021/11/26 11:32:18;;;;;;;1.95;0.60;;;;;;;;;;5065873;28;20047;-78
2021/11/26 11:34:46;;;;;;;1.85;0.60;;;;;;;;;;5066809;28;20029;-79
2021/11/26 11:37:17;;;;;;;1.20;0.45;;;;;;;;;;5066393;28;20040;-76
2021/11/26 11:39:52;;;;;;;2.67;0.65;;;;;;;;;;5048756;28;20029;-77
2021/11/26 11:42:30;;;;;;;1.65;0.55;;;;;;;;;;5066460;28;20029;-79
2021/11/26 11:44:58;;;;;;;1.10;0.57;;;;;;;;;;5046935;28;20029;-78
2021/11/26 11:47:25;;;;;;;0.38;0.38;;;;;;;;;;5048457;28;20108;-77
2021/11/26 11:50:05;;;;;;;0.82;0.40;;;;;;;;;;5065478;28;20041;-78
2021/11/26 11:52:44;;;;;;;1.20;0.55;;;;;;;;;;5047810;28;20028;-77
2021/11/26 11:55:22;;;;;;;2.92;0.60;;;;;;;;;;5047858;28;20318;-77
2021/11/26 11:57:47;;;;;;;3.38;0.60;;;;;;;;;;5047618;28;20372;-77
2021/11/26 12:00:18;;;;;;;3.33;0.82;;;;;;;;;;5065726;28;20029;-77
2021/11/26 12:02:45;;;;;;;0.50;0.38;;;;;;;;;;5065946;28;20029;-76
2021/11/26 12:05:25;;;;;;;0.40;0.40;;;;;;;;;;5066082;28;20025;-78
2021/11/26 12:08:03;;;;;;;2.40;0.50;;;;;;;;;;5048235;28;20032;-77
2021/11/26 12:10:29;;;;;;;3.95;0.60;;;;;;;;;;5066150;28;20347;-77
2021/11/26 12:12:56;;;;;;;2.95;0.50;;;;;;;;;;5066221;28;20036;-78
2021/11/26 12:15:33;;;;;;;1.45;0.52;;;;;;;;;;5065879;28;20029;-78
2021/11/26 12:18:04;;;;;;;2.63;0.50;;;;;;;;;;5047899;28;20031;-77
2021/11/26 12:20:30;;;;;;;1.88;0.40;;;;;;;;;;5065788;28;20033;-77
2021/11/26 12:23:04;;;;;;;1.58;0.57;;;;;;;;;;5065690;28;20025;-77
2021/11/26 12:28:36;;;;;;;2.78;0.50;;;;;;;;;;5065164;28;20473;-77
2021/11/26 12:31:05;;;;;;;2.35;0.63;;;;;;;;;;5065614;28;20028;-77
2021/11/26 12:33:32;;;;;;;0.55;0.40;;;;;;;;;;5065449;28;20033;-77
2021/11/26 12:36:02;;;;;;;1.00;0.40;;;;;;;;;;5065121;28;20116;-77
2021/11/26 12:38:47;;;;;;;3.38;0.80;;;;;;;;;;5064828;28;20388;-78
2021/11/26 12:41:26;;;;;;;1.85;0.57;;;;;;;;;;5065000;28;20029;-78
2021/11/26 12:43:52;;;;;;;2.92;0.50;;;;;;;;;;5064897;28;20036;-78
2021/11/26 12:46:18;;;;;;;2.25;0.40;;;;;;;;;;5064886;28;20033;-78
2021/11/26 12:49:04;;;;;;;0.50;0.40;;;;;;;;;;5047154;28;20033;-79
2021/11/26 12:51:37;;;;;;;0.90;0.30;;;;;;;;;;5065017;28;20051;-77
2021/11/26 12:54:05;;;;;;;0.60;0.32;;;;;;;;;;5065408;28;20088;-77
2021/11/26 12:56:32;;;;;;;0.80;0.30;;;;;;;;;;5046932;28;20067;-78
2021/11/26 12:58:57;;;;;;;1.77;0.43;;;;;;;;;;5064752;28;20116;-78
2021/11/26 13:01:23;;;;;;;1.85;0.50;;;;;;;;;;5063951;28;20033;-78
2021/11/26 13:03:49;;;;;;;1.20;0.35;;;;;;;;;;5064699;28;20075;-78
2021/11/26 13:06:23;;;;;;;2.28;0.63;;;;;;;;;;5064278;28;20044;-79
2021/11/26 13:09:05;;;;;;;;;;;;;;;;;;5065026;28;20029;-78
2021/11/26 13:11:41;;;;;;;0.82;0.30;;;;;;;;;;5062842;28;19913;-76
2021/11/26 13:14:08;;;;;;;0.60;0.40;;;;;;;;;;5046430;28;20051;-78
2021/11/26 13:16:34;;;;;;;0.35;0.30;;;;;;;;;;5046392;28;20040;-79
2021/11/26 13:19:00;;;;;;;2.83;0.40;;;;;;;;;;5046360;28;20033;-77
2021/11/26 13:21:27;;;;;;;0.95;0.35;;;;;;;;;;5064117;28;20067;-77
2021/11/26 13:23:53;;;;;;;1.05;0.43;;;;;;;;;;5045931;28;20028;-78
2021/11/26 13:26:19;;;;;;;0.52;0.40;;;;;;;;;;5045856;28;20033;-79
2021/11/26 13:28:50;;;;;;;1.08;0.52;;;;;;;;;;5064448;28;20101;-77
2021/11/26 13:31:19;;;;;;;2.17;0.60;;;;;;;;;;5064134;28;20027;-78
2021/11/26 13:33:47;;;;;;;1.02;0.50;;;;;;;;;;5046291;28;20068;-80
2021/11/26 13:36:16;;;;;;;2.10;1.40;;;;;;;;;;5064063;28;20055;-80
2021/11/26 13:38:48;;;;;;;2.00;0.60;;;;;;;;;;5064045;28;20024;-78
2021/11/26 13:41:20;;;;;;;2.60;0.55;;;;;;;;;;5064299;28;20036;-78
2021/11/26 13:43:56;;;;;;;2.22;0.50;;;;;;;;;;5045632;28;20033;-78
2021/11/26 13:46:27;;;;;;;1.10;0.45;;;;;;;;;;5045945;28;20032;-78
2021/11/26 13:48:57;;;;;;;3.10;0.60;;;;;;;;;;5046203;28;20032;-77
2021/11/26 13:51:26;;;;;;;2.97;0.52;;;;;;;;;;5063938;28;20055;-77
2021/11/26 13:53:55;;;;;;;1.02;0.45;;;;;;;;;;5064289;28;20040;-77
2021/11/26 13:56:31;;;;;;;0.95;0.50;;;;;;;;;;5063803;28;20036;-78
2021/11/26 13:59:03;;;;;;;2.90;0.60;;;;;;;;;;5046083;28;20032;-77
2021/11/26 14:01:37;;;;;;;0.82;0.40;;;;;;;;;;5045714;28;20036;-77
2021/11/26 14:04:03;;;;;;;;;;;;;;;;;;5046313;28;20044;-78
2021/11/26 14:06:30;;;;;;;0.68;0.40;;;;;;;;;;5062273;28;19984;-78
2021/11/26 14:09:02;;;;;;;0.60;0.50;;;;;;;;;;5064421;28;20517;-79
2021/11/26 14:11:36;;;;;;;0.68;0.40;;;;;;;;;;5045503;28;20025;-78
2021/11/26 14:14:09;;;;;;;0.40;0.40;;;;;;;;;;5045432;28;20083;-77
2021/11/26 14:16:35;;;;;;;0.57;0.32;;;;;;;;;;5063770;28;20029;-77
2021/11/26 14:19:03;;;;;;;1.05;0.60;;;;;;;;;;5063227;28;20029;-78
2021/11/26 14:21:31;;;;;;;1.05;0.30;;;;;;;;;;5063314;28;20025;-78
2021/11/26 14:24:03;;;;;;;0.82;0.50;;;;;;;;;;5045168;28;20371;-78
2021/11/26 14:26:31;;;;;;;0.63;0.40;;;;;;;;;;5063118;28;20029;-77
2021/11/26 14:29:11;;;;;;;0.40;0.40;;;;;;;;;;5063129;28;20056;-78
2021/11/26 14:31:39;;;;;;;1.48;0.70;;;;;;;;;;5063350;28;20029;-77
2021/11/26 14:34:10;;;;;;;0.57;0.30;;;;;;;;;;5063263;28;20029;-77
2021/11/26 14:36:36;;;;;;;1.02;0.45;;;;;;;;;;5063012;28;20033;-78
2021/11/26 14:39:04;;;;;;;0.80;0.50;;;;;;;;;;5063006;28;20036;-77
2021/11/26 14:41:29;;;;;;;1.58;0.43;;;;;;;;;;5063360;28;20033;-76
2021/11/26 14:44:12;;;;;;;0.95;0.68;;;;;;;;;;5063208;28;20116;-78
2021/11/26 14:46:52;;;;;;;1.48;0.57;;;;;;;;;;5045752;28;20470;-77
2021/11/26 14:49:19;;;;;;;1.85;0.47;;;;;;;;;;5063470;28;20028;-78
2021/11/26 14:51:45;;;;;;;2.20;0.50;;;;;;;;;;5063658;28;20029;-77
2021/11/26 14:54:14;;;;;;;1.02;0.50;;;;;;;;;;5063959;28;20032;-78
2021/11/26 14:56:40;;;;;;;4.15;0.65;;;;;;;;;;5046118;28;20029;-77
2021/11/26 14:59:10;;;;;;;0.82;0.60;;;;;;;;;;5045950;28;20021;-77
2021/11/26 15:01:41;;;;;;;1.73;0.98;;;;;;;;;;5045332;28;20033;-77